Airfield :







YOU CAN JOIN US ON...

 
LOGIN :

Register | Disclaimer

   EN    FR    IT 

 









Legend :    VFR   Marginal VFR   IFR   Intensive IFR   Very Intensive IFR
Visi :
Ceiling :
>= 8 km
>= 3000ft
5 to 8 km
1000 to 3000 ft
1500m to 5 km
500 to 1000 ft
800 to 1500m
200 to 500 ft
< 800m
< 200 ft
Symbols :   Thunderstorms  Fog  Heavy snow  Heavy precipitations  Wind > 20 kt






- Airport Elevation : 199 ft
- IATA code : YRQ


CYRQ - Trois-Rivières

CURRENT METAR :
  • 281200Z AUTO 00000KT 9SM CLR M06/M09 A3015 RMK SLP215

EXPIRED METARs :
  • 281100Z AUTO 00000KT 9SM CLR M08/M09 A3013 RMK SLP208
  • 281000Z AUTO VRB02KT 9SM CLR M07/M09 A3013 RMK SLP208

TAF TAF CYRQ
Valid from the 28 at 08:00 until the 28 at 20:00 UTC


280738Z 2808/2820 VRB03KT P6SM FEW030 RMK FCST BASED ON AUTO OBS. NXT FCST BY 281400Z



MET'MAP, your aeronautical weather chart ! - Copyright ORBIFLY December 2007 - Disclaimer

ORBIFLY MET'MAP TEAM :

Programming & Development : Alexandra Zaïnal
Concept & original design : Baudouin d'Aumeries
Assistance for programming : Marc-Olivier Méhu
Technical & hardware support : Manuel Goepfert

Contact : metmap@orbifly.com




SOURCES & CREDITS :

   NOAA